createdAt,value
2023-02-28T00:00:20.240Z,3.08
2023-02-28T00:02:47.160Z,3.20
2023-02-28T00:05:14.915Z,3.67
2023-02-28T00:07:43.269Z,3.38
2023-02-28T00:10:11.044Z,3.10
2023-02-28T00:12:37.876Z,3.50
2023-02-28T00:15:06.455Z,4.05
2023-02-28T00:17:33.136Z,3.60
2023-02-28T00:20:12.626Z,3.22
2023-02-28T00:22:39.721Z,3.20
2023-02-28T00:25:08.327Z,3.45
2023-02-28T00:27:34.969Z,3.38
2023-02-28T00:30:02.050Z,3.65
2023-02-28T00:32:28.587Z,3.70
2023-02-28T00:34:55.049Z,3.67
2023-02-28T00:37:21.560Z,4.22
2023-02-28T00:39:48.093Z,3.53
2023-02-28T00:42:16.040Z,3.80
2023-02-28T00:44:42.543Z,3.75
2023-02-28T00:47:09.086Z,3.50
2023-02-28T00:49:35.657Z,3.53
2023-02-28T00:52:02.160Z,4.00
2023-02-28T00:54:28.734Z,4.20
2023-02-28T00:56:55.189Z,3.85
2023-02-28T00:59:22.975Z,4.50
2023-02-28T01:01:49.643Z,3.53
2023-02-28T01:04:16.591Z,3.70
2023-02-28T01:06:43.161Z,4.07
2023-02-28T01:09:10.017Z,3.35
2023-02-28T01:11:36.610Z,3.95
2023-02-28T01:14:03.443Z,4.07
2023-02-28T01:16:31.781Z,3.83
2023-02-28T01:18:58.257Z,4.47
2023-02-28T01:21:24.923Z,4.25
2023-02-28T01:23:51.511Z,4.70
2023-02-28T01:26:19.520Z,3.72
2023-02-28T01:28:46.384Z,4.28
2023-02-28T01:31:13.353Z,4.47
2023-02-28T01:33:41.562Z,4.25
2023-02-28T01:36:09.906Z,4.07
2023-02-28T01:38:36.450Z,4.38
2023-02-28T01:41:03.276Z,3.85
2023-02-28T01:43:30.506Z,4.03
2023-02-28T01:45:57.996Z,4.20
2023-02-28T01:48:27.229Z,4.43
2023-02-28T01:50:55.891Z,4.60
2023-02-28T01:53:24.996Z,4.40
2023-02-28T01:55:52.985Z,4.88
2023-02-28T01:58:19.719Z,4.15
2023-02-28T02:00:46.232Z,4.70
2023-02-28T02:03:16.933Z,4.78
2023-02-28T02:05:48.475Z,5.20
2023-02-28T02:08:17.865Z,4.88
2023-02-28T02:10:50.298Z,4.90
2023-02-28T02:13:26.866Z,4.63
2023-02-28T02:16:00.489Z,4.90
2023-02-28T02:18:30.195Z,4.93
2023-02-28T02:21:12.832Z,5.20
2023-02-28T02:24:00.139Z,4.95
2023-02-28T02:26:45.239Z,5.40
2023-02-28T02:29:31.954Z,5.40
2023-02-28T02:32:10.811Z,4.95
2023-02-28T02:34:42.124Z,5.25
2023-02-28T02:37:13.682Z,5.25
2023-02-28T02:39:45.751Z,5.32
2023-02-28T02:42:15.213Z,5.40
2023-02-28T02:44:45.533Z,4.93
2023-02-28T02:47:13.529Z,4.97
2023-02-28T02:49:44.118Z,4.90
2023-02-28T02:52:12.793Z,5.13
2023-02-28T02:54:41.151Z,5.35
2023-02-28T02:57:09.655Z,5.13
2023-02-28T02:59:36.669Z,4.90
2023-02-28T03:02:05.140Z,5.07
2023-02-28T03:04:33.339Z,5.35
2023-02-28T03:07:01.479Z,5.78
2023-02-28T03:09:27.872Z,4.85
2023-02-28T03:11:55.679Z,5.00
2023-02-28T03:14:27.243Z,5.80
2023-02-28T03:17:12.332Z,5.28
2023-02-28T03:19:46.126Z,4.80
2023-02-28T03:24:44.661Z,5.03
2023-02-28T03:27:12.736Z,5.00
2023-02-28T03:29:42.011Z,4.90
2023-02-28T03:32:15.743Z,5.50
2023-02-28T03:37:11.464Z,5.32
2023-02-28T03:39:39.366Z,5.07
2023-02-28T03:42:09.792Z,4.68
2023-02-28T03:44:38.635Z,4.65
2023-02-28T03:47:07.486Z,5.22
2023-02-28T03:49:36.244Z,5.20
2023-02-28T03:52:04.735Z,5.60
2023-02-28T03:54:32.652Z,4.53
2023-02-28T03:57:04.752Z,5.15
2023-02-28T03:59:35.557Z,4.82
2023-02-28T04:02:02.505Z,5.13
2023-02-28T04:04:29.196Z,4.70
2023-02-28T04:07:02.957Z,4.55
2023-02-28T04:09:29.489Z,5.20
2023-02-28T04:11:57.320Z,4.65
2023-02-28T04:14:24.336Z,4.88
2023-02-28T04:16:52.162Z,5.40
2023-02-28T04:19:19.198Z,5.25
2023-02-28T04:21:46.444Z,5.03
2023-02-28T04:24:15.458Z,4.60
2023-02-28T04:26:44.464Z,5.28
2023-02-28T04:29:13.037Z,4.80
2023-02-28T04:31:39.692Z,4.75
2023-02-28T04:34:07.533Z,5.40
2023-02-28T04:36:34.039Z,4.47
2023-02-28T04:39:00.754Z,5.10
2023-02-28T04:41:29.557Z,9.52
2023-02-28T04:43:57.451Z,8.65
2023-02-28T04:46:24.295Z,6.50
2023-02-28T04:48:50.775Z,6.05
2023-02-28T04:51:19.831Z,6.68
2023-02-28T04:53:47.113Z,6.38
2023-02-28T04:56:14.627Z,7.97
2023-02-28T04:58:41.130Z,7.13
2023-02-28T05:01:18.013Z,6.30
2023-02-28T05:03:44.793Z,6.32
2023-02-28T05:06:11.515Z,5.25
2023-02-28T05:08:39.419Z,6.25
2023-02-28T05:11:07.776Z,5.80
2023-02-28T05:13:34.285Z,5.85
2023-02-28T05:16:00.865Z,9.27
2023-02-28T05:18:27.496Z,14.23
2023-02-28T05:20:54.109Z,13.90
2023-02-28T05:23:21.852Z,7.13
2023-02-28T05:25:49.648Z,14.43
2023-02-28T05:28:16.131Z,20.20
2023-02-28T05:30:42.633Z,9.48
2023-02-28T05:33:11.819Z,13.48
2023-02-28T05:35:39.138Z,10.32
2023-02-28T05:38:05.757Z,10.63
2023-02-28T05:40:32.235Z,9.55
2023-02-28T05:43:00.120Z,8.85
2023-02-28T05:45:26.681Z,9.38
2023-02-28T05:47:54.182Z,7.28
2023-02-28T05:50:20.717Z,8.18
2023-02-28T05:52:49.818Z,8.00
2023-02-28T05:55:16.274Z,5.90
2023-02-28T05:57:43.341Z,8.25
2023-02-28T06:00:12.639Z,7.60
2023-02-28T06:02:40.114Z,6.70
2023-02-28T06:05:07.209Z,5.72
2023-02-28T06:07:33.647Z,6.93
2023-02-28T06:10:00.202Z,6.07
2023-02-28T06:12:26.718Z,5.50
2023-02-28T06:14:53.202Z,5.32
2023-02-28T06:17:21.080Z,5.28
2023-02-28T06:19:48.997Z,5.18
2023-02-28T06:22:15.561Z,5.63
2023-02-28T06:24:42.055Z,5.60
2023-02-28T06:27:08.609Z,5.82
2023-02-28T06:29:36.187Z,5.40
2023-02-28T06:32:03.942Z,4.97
2023-02-28T06:34:31.855Z,5.57
2023-02-28T06:37:03.167Z,6.00
2023-02-28T06:39:29.937Z,5.78
2023-02-28T06:41:56.757Z,6.43
2023-02-28T06:44:23.812Z,5.15
2023-02-28T06:46:50.274Z,5.78
2023-02-28T06:49:17.010Z,5.57
2023-02-28T06:51:48.178Z,5.53
2023-02-28T06:54:14.689Z,5.40
2023-02-28T06:56:41.261Z,5.45
2023-02-28T06:59:07.904Z,5.30
2023-02-28T07:01:34.438Z,5.03
2023-02-28T07:04:01.814Z,5.40
2023-02-28T07:06:28.677Z,4.95
2023-02-28T07:08:56.785Z,4.53
2023-02-28T07:11:23.970Z,4.35
2023-02-28T07:13:50.425Z,3.85
2023-02-28T07:16:17.061Z,4.78
2023-02-28T07:18:43.697Z,4.32
2023-02-28T07:21:10.995Z,4.25
2023-02-28T07:23:38.981Z,4.55
2023-02-28T07:26:07.647Z,4.28
2023-02-28T07:28:34.159Z,4.28
2023-02-28T07:31:04.310Z,4.25
2023-02-28T07:33:30.885Z,4.30
2023-02-28T07:36:01.142Z,4.43
2023-02-28T07:38:27.901Z,3.90
2023-02-28T07:40:54.353Z,4.38
2023-02-28T07:43:22.326Z,4.38
2023-02-28T07:45:48.839Z,4.40
2023-02-28T07:48:15.408Z,4.30
2023-02-28T07:50:42.019Z,3.90
2023-02-28T07:53:08.536Z,4.18
2023-02-28T07:55:35.074Z,3.90
2023-02-28T07:58:01.647Z,4.78
2023-02-28T08:00:30.175Z,3.90
2023-02-28T08:02:56.668Z,4.30
2023-02-28T08:05:23.209Z,4.00
2023-02-28T08:07:49.973Z,3.80
2023-02-28T08:10:16.958Z,4.05
2023-02-28T08:12:43.500Z,4.22
2023-02-28T08:15:10.412Z,3.90
2023-02-28T08:17:38.393Z,4.57
2023-02-28T08:20:05.388Z,3.80
2023-02-28T08:22:31.883Z,4.20
2023-02-28T08:24:58.394Z,4.05
2023-02-28T08:27:24.975Z,3.80
2023-02-28T08:29:51.467Z,3.92
2023-02-28T08:32:29.361Z,4.40
2023-02-28T08:34:57.963Z,3.55
2023-02-28T08:37:24.651Z,4.03
2023-02-28T08:39:51.767Z,4.05
2023-02-28T08:42:19.292Z,3.85
2023-02-28T08:44:45.865Z,3.67
2023-02-28T08:47:12.526Z,3.72
2023-02-28T08:49:39.270Z,3.63
2023-02-28T08:52:07.174Z,4.10
2023-02-28T08:54:35.079Z,3.72
2023-02-28T08:57:01.578Z,3.20
2023-02-28T08:59:28.045Z,3.17
2023-02-28T09:01:54.507Z,3.15
2023-02-28T09:04:21.529Z,3.35
2023-02-28T09:06:49.840Z,3.42
2023-02-28T09:09:17.751Z,3.08
2023-02-28T09:11:46.451Z,3.33
2023-02-28T09:14:13.005Z,3.55
2023-02-28T09:16:39.611Z,3.55
2023-02-28T09:19:06.362Z,3.42
2023-02-28T09:21:32.989Z,3.13
2023-02-28T09:23:59.581Z,3.33
2023-02-28T09:26:34.671Z,3.70
2023-02-28T09:29:05.955Z,3.13
2023-02-28T09:31:32.552Z,3.30
2023-02-28T09:33:59.811Z,3.38
2023-02-28T09:36:38.008Z,3.08
2023-02-28T09:41:48.485Z,3.13
2023-02-28T09:44:19.341Z,3.25
2023-02-28T09:46:48.028Z,2.85
2023-02-28T09:49:15.795Z,3.30
2023-02-28T09:51:47.914Z,3.83
2023-02-28T09:54:20.013Z,3.60
2023-02-28T09:56:50.113Z,3.20
2023-02-28T09:59:24.530Z,3.50
2023-02-28T10:01:55.531Z,3.53
2023-02-28T10:04:31.834Z,3.25
2023-02-28T10:06:58.855Z,3.00
2023-02-28T10:09:26.699Z,3.17
2023-02-28T10:11:58.954Z,3.67
2023-02-28T10:14:26.880Z,3.83
2023-02-28T10:16:56.168Z,3.80
2023-02-28T10:19:25.189Z,3.65
2023-02-28T10:21:55.939Z,3.65
2023-02-28T10:24:25.204Z,3.80
2023-02-28T10:26:53.735Z,5.00
2023-02-28T10:29:21.618Z,4.28
2023-02-28T10:31:48.087Z,3.85
2023-02-28T10:34:14.999Z,4.10
2023-02-28T10:36:46.916Z,3.90
2023-02-28T10:39:34.939Z,2.75
2023-02-28T10:42:01.740Z,3.50
2023-02-28T10:44:29.590Z,3.30
2023-02-28T10:46:57.948Z,3.80
2023-02-28T10:49:25.301Z,3.60
2023-02-28T10:51:53.122Z,3.72
2023-02-28T10:54:21.587Z,3.85
2023-02-28T10:57:06.330Z,3.63
2023-02-28T10:59:34.151Z,4.00
2023-02-28T11:02:00.858Z,3.65
2023-02-28T11:04:34.091Z,3.85
2023-02-28T11:07:01.271Z,3.42
2023-02-28T11:09:30.331Z,3.90
2023-02-28T11:11:57.163Z,3.70
2023-02-28T11:14:26.331Z,3.25
2023-02-28T11:16:57.328Z,3.95
2023-02-28T11:19:25.634Z,3.65
2023-02-28T11:21:54.598Z,3.28
2023-02-28T11:24:24.139Z,3.58
2023-02-28T11:26:50.731Z,3.25
2023-02-28T11:29:20.238Z,3.67
2023-02-28T11:32:04.895Z,3.70
2023-02-28T11:34:33.076Z,4.18
2023-02-28T11:37:00.584Z,3.78
2023-02-28T11:39:27.631Z,3.80
2023-02-28T11:42:03.196Z,3.55
2023-02-28T11:44:34.933Z,3.92
2023-02-28T11:47:03.992Z,3.72
2023-02-28T11:49:36.883Z,3.28
2023-02-28T11:52:09.677Z,3.90
2023-02-28T11:54:55.325Z,3.67
2023-02-28T11:57:30.334Z,3.85
2023-02-28T12:00:02.367Z,3.70
2023-02-28T12:02:30.252Z,3.75
2023-02-28T12:05:07.879Z,3.97
2023-02-28T12:07:38.729Z,3.75
2023-02-28T12:10:08.243Z,3.70
2023-02-28T12:12:39.892Z,4.28
2023-02-28T12:15:33.325Z,4.20
2023-02-28T12:18:10.329Z,4.28
2023-02-28T12:20:40.968Z,4.80
2023-02-28T12:23:20.869Z,4.80
2023-02-28T12:26:11.337Z,4.32
2023-02-28T12:28:40.769Z,4.10
2023-02-28T12:31:12.472Z,4.25
2023-02-28T12:33:41.819Z,4.18
2023-02-28T12:36:11.514Z,4.05
2023-02-28T12:38:41.301Z,4.10
2023-02-28T12:41:13.070Z,3.85
2023-02-28T12:43:43.693Z,4.03
2023-02-28T12:46:12.059Z,4.40
2023-02-28T12:48:43.713Z,4.40
2023-02-28T12:51:12.648Z,4.55
2023-02-28T12:53:44.612Z,4.20
2023-02-28T12:56:14.819Z,4.30
2023-02-28T12:58:44.519Z,3.97
2023-02-28T13:01:29.082Z,4.32
2023-02-28T13:04:07.820Z,4.38
2023-02-28T13:06:40.823Z,4.30
2023-02-28T13:09:10.392Z,4.23
2023-02-28T13:11:41.090Z,4.13
2023-02-28T13:14:17.521Z,3.97
2023-02-28T13:16:58.723Z,4.20
2023-02-28T13:19:26.631Z,3.67
2023-02-28T13:21:55.199Z,4.10
2023-02-28T13:24:39.365Z,3.97
2023-02-28T13:29:34.674Z,4.07
2023-02-28T13:32:20.324Z,3.85
2023-02-28T13:35:08.064Z,3.72
2023-02-28T13:37:39.249Z,4.07
2023-02-28T13:40:24.419Z,4.10
2023-02-28T13:42:51.618Z,4.20
2023-02-28T13:45:21.888Z,3.80
2023-02-28T13:47:52.741Z,4.20
2023-02-28T13:50:22.654Z,3.85
2023-02-28T13:52:55.319Z,3.90
2023-02-28T13:55:30.139Z,4.35
2023-02-28T13:58:08.041Z,4.22
2023-02-28T14:00:43.880Z,4.05
2023-02-28T14:03:16.122Z,3.50
2023-02-28T14:05:43.309Z,3.55
2023-02-28T14:08:16.566Z,3.83
2023-02-28T14:10:44.573Z,3.78
2023-02-28T14:13:35.055Z,4.32
2023-02-28T14:16:02.003Z,3.83
2023-02-28T14:18:30.546Z,3.67
2023-02-28T14:20:59.667Z,3.72
2023-02-28T14:23:35.224Z,3.50
2023-02-28T14:26:07.887Z,3.92
2023-02-28T14:28:44.205Z,4.25
2023-02-28T14:31:14.487Z,4.10
2023-02-28T14:33:59.665Z,3.80
2023-02-28T14:36:27.989Z,4.20
2023-02-28T14:38:57.271Z,4.03
2023-02-28T14:41:24.858Z,3.90
2023-02-28T14:43:52.992Z,3.95
2023-02-28T14:46:20.776Z,4.25
2023-02-28T14:48:47.556Z,3.70
2023-02-28T14:51:19.173Z,3.90
2023-02-28T14:53:47.373Z,4.20
2023-02-28T14:56:21.026Z,4.03
2023-02-28T15:01:20.423Z,4.38
2023-02-28T15:03:48.278Z,4.07
2023-02-28T15:06:15.859Z,4.18
2023-02-28T15:08:42.553Z,5.13
2023-02-28T15:11:13.585Z,4.45
2023-02-28T15:13:42.957Z,4.28
2023-02-28T15:16:11.739Z,4.72
2023-02-28T15:18:43.562Z,4.38
2023-02-28T15:21:13.140Z,4.40
2023-02-28T15:23:40.374Z,3.88
2023-02-28T15:26:07.506Z,4.07
2023-02-28T15:28:34.226Z,4.20
2023-02-28T15:31:03.083Z,4.63
2023-02-28T15:33:30.385Z,4.45
2023-02-28T15:36:14.911Z,4.07
2023-02-28T15:38:42.467Z,3.90
2023-02-28T15:41:22.280Z,4.45
2023-02-28T15:43:48.952Z,4.65
2023-02-28T15:46:17.969Z,5.25
2023-02-28T15:48:45.453Z,4.68
2023-02-28T15:51:17.658Z,4.03
2023-02-28T15:53:46.614Z,4.00
2023-02-28T15:56:25.832Z,4.65
2023-02-28T15:58:55.305Z,4.28
2023-02-28T16:01:25.356Z,4.10
2023-02-28T16:03:53.862Z,4.13
2023-02-28T16:06:25.631Z,4.35
2023-02-28T16:08:52.536Z,4.43
2023-02-28T16:11:19.736Z,4.03
2023-02-28T16:13:49.235Z,4.13
2023-02-28T16:16:16.806Z,4.50
2023-02-28T16:18:44.858Z,4.53
2023-02-28T16:21:11.508Z,4.90
2023-02-28T16:23:38.051Z,4.85
2023-02-28T16:26:04.939Z,4.70
2023-02-28T16:28:50.017Z,4.53
2023-02-28T16:31:17.692Z,4.75
2023-02-28T16:33:46.342Z,4.63
2023-02-28T16:36:17.213Z,4.85
2023-02-28T16:38:43.795Z,4.95
2023-02-28T16:41:17.467Z,4.30
2023-02-28T16:43:44.702Z,4.57
2023-02-28T16:46:12.030Z,4.70
2023-02-28T16:48:38.748Z,4.28
2023-02-28T16:51:06.855Z,4.38
2023-02-28T16:53:33.456Z,4.50
2023-02-28T16:56:03.126Z,4.38
2023-02-28T16:58:29.920Z,4.55
2023-02-28T17:00:56.625Z,5.00
2023-02-28T17:03:32.624Z,4.55
2023-02-28T17:05:59.983Z,5.00
2023-02-28T17:08:29.851Z,4.70
2023-02-28T17:10:56.737Z,4.75
2023-02-28T17:13:23.237Z,4.38
2023-02-28T17:15:50.407Z,4.45
2023-02-28T17:18:19.969Z,4.28
2023-02-28T17:20:46.531Z,4.65
2023-02-28T17:23:13.188Z,4.53
2023-02-28T17:25:41.111Z,4.32
2023-02-28T17:28:07.722Z,4.38
2023-02-28T17:30:35.598Z,4.72
2023-02-28T17:33:02.527Z,4.20
2023-02-28T17:35:29.397Z,4.40
2023-02-28T17:37:56.219Z,4.55
2023-02-28T17:40:24.271Z,4.63
2023-02-28T17:42:53.398Z,4.20
2023-02-28T17:45:21.047Z,4.60
2023-02-28T17:47:48.403Z,4.55
2023-02-28T17:50:16.406Z,4.75
2023-02-28T17:52:42.979Z,4.90
2023-02-28T17:55:10.396Z,5.18
2023-02-28T17:57:36.997Z,4.63
2023-02-28T18:00:07.802Z,5.47
2023-02-28T18:02:34.442Z,5.28
2023-02-28T18:05:01.066Z,5.07
2023-02-28T18:07:27.644Z,5.28
2023-02-28T18:09:54.447Z,5.57
2023-02-28T18:12:21.117Z,4.85
2023-02-28T18:14:48.800Z,4.80
2023-02-28T18:17:16.852Z,4.93
2023-02-28T18:19:43.556Z,4.95
2023-02-28T18:22:10.444Z,5.00
2023-02-28T18:24:37.190Z,5.03
2023-02-28T18:27:03.915Z,5.25
2023-02-28T18:29:31.822Z,4.60
2023-02-28T18:31:58.557Z,4.97
2023-02-28T18:34:26.712Z,5.28
2023-02-28T18:36:53.678Z,5.03
2023-02-28T18:39:20.412Z,5.22
2023-02-28T18:41:47.214Z,5.68
2023-02-28T18:47:42.169Z,5.95
2023-02-28T18:50:11.419Z,5.57
2023-02-28T18:52:39.382Z,5.80
2023-02-28T18:55:08.470Z,5.38
2023-02-28T18:57:35.190Z,5.55
2023-02-28T19:00:01.801Z,5.60
2023-02-28T19:02:28.442Z,5.55
2023-02-28T19:04:55.537Z,6.10
2023-02-28T19:07:23.938Z,5.78
2023-02-28T19:09:50.764Z,5.50
2023-02-28T19:12:19.432Z,5.70
2023-02-28T19:14:49.053Z,5.18
2023-02-28T19:17:16.306Z,5.80
2023-02-28T19:19:42.970Z,6.07
2023-02-28T19:22:09.674Z,5.22
2023-02-28T19:24:37.712Z,5.57
2023-02-28T19:27:04.473Z,5.78
2023-02-28T19:29:31.183Z,5.72
2023-02-28T19:31:58.152Z,5.55
2023-02-28T19:34:24.822Z,5.47
2023-02-28T19:36:51.629Z,5.78
2023-02-28T19:39:19.192Z,6.18
2023-02-28T19:41:47.231Z,7.70
2023-02-28T19:44:13.970Z,9.15
2023-02-28T19:46:40.674Z,8.85
2023-02-28T19:49:07.322Z,9.27
2023-02-28T19:51:34.498Z,8.60
2023-02-28T19:54:01.249Z,7.05
2023-02-28T19:56:28.248Z,7.10
2023-02-28T19:58:58.843Z,6.97
2023-02-28T20:01:26.090Z,7.53
2023-02-28T20:03:52.808Z,8.85
2023-02-28T20:06:19.592Z,7.07
2023-02-28T20:08:46.524Z,8.75
2023-02-28T20:11:15.073Z,7.28
2023-02-28T20:13:41.903Z,7.18
2023-02-28T20:16:11.157Z,7.28
2023-02-28T20:18:38.418Z,7.45
2023-02-28T20:21:05.350Z,8.02
2023-02-28T20:23:32.256Z,9.23
2023-02-28T20:25:59.426Z,11.10
2023-02-28T20:28:26.266Z,8.15
2023-02-28T20:30:53.015Z,8.45
2023-02-28T20:33:21.170Z,7.80
2023-02-28T20:35:49.240Z,7.60
2023-02-28T20:38:16.077Z,8.10
2023-02-28T20:40:42.952Z,7.88
2023-02-28T20:43:09.968Z,8.10
2023-02-28T20:45:36.659Z,10.60
2023-02-28T20:48:03.392Z,9.15
2023-02-28T20:50:31.874Z,10.10
2023-02-28T20:52:58.649Z,9.57
2023-02-28T20:55:25.490Z,9.73
2023-02-28T20:57:54.394Z,10.38
2023-02-28T21:00:22.625Z,11.32
2023-02-28T21:02:49.629Z,10.50
2023-02-28T21:05:17.130Z,10.52
2023-02-28T21:07:45.310Z,10.73
2023-02-28T21:10:12.125Z,10.88
2023-02-28T21:12:38.825Z,10.05
2023-02-28T21:15:05.915Z,10.48
2023-02-28T21:17:32.632Z,11.05
2023-02-28T21:19:59.333Z,11.23
2023-02-28T21:22:25.985Z,11.13
2023-02-28T21:24:54.138Z,11.45
2023-02-28T21:27:20.925Z,11.35
2023-02-28T21:29:47.814Z,11.25
2023-02-28T21:32:14.821Z,11.73
2023-02-28T21:34:41.751Z,11.98
2023-02-28T21:37:08.653Z,11.32
2023-02-28T21:39:35.945Z,11.52
2023-02-28T21:42:04.403Z,11.00
2023-02-28T21:44:31.437Z,11.73
2023-02-28T21:47:01.151Z,11.57
2023-02-28T21:49:28.574Z,12.57
2023-02-28T21:51:55.291Z,12.82
2023-02-28T21:54:21.914Z,13.15
2023-02-28T21:56:50.563Z,11.93
2023-02-28T21:59:19.092Z,11.18
2023-02-28T22:01:46.088Z,11.05
2023-02-28T22:04:23.203Z,11.82
2023-02-28T22:06:51.358Z,11.57
2023-02-28T22:09:18.252Z,10.77
2023-02-28T22:11:45.149Z,10.77
2023-02-28T22:14:12.633Z,10.77
2023-02-28T22:16:51.173Z,10.63
2023-02-28T22:19:18.333Z,11.02
2023-02-28T22:21:45.749Z,11.60
2023-02-28T22:24:12.356Z,12.43
2023-02-28T22:26:38.889Z,11.55
2023-02-28T22:29:05.635Z,10.57
2023-02-28T22:31:32.942Z,11.60
2023-02-28T22:34:01.826Z,11.43
2023-02-28T22:36:29.081Z,10.48
2023-02-28T22:38:57.237Z,10.80
2023-02-28T22:41:24.097Z,11.20
2023-02-28T22:43:52.748Z,10.55
2023-02-28T22:46:19.570Z,11.43
2023-02-28T22:48:48.099Z,10.48
2023-02-28T22:51:16.639Z,10.57
2023-02-28T22:53:43.880Z,11.00
2023-02-28T22:56:11.222Z,11.43
2023-02-28T22:58:37.962Z,11.20
2023-02-28T23:01:07.834Z,11.35
2023-02-28T23:03:34.607Z,11.02
2023-02-28T23:06:01.588Z,10.90
2023-02-28T23:08:29.364Z,10.27
2023-02-28T23:10:55.982Z,10.27
2023-02-28T23:13:22.519Z,10.90
2023-02-28T23:15:49.468Z,10.90
2023-02-28T23:18:15.957Z,10.43
2023-02-28T23:20:42.590Z,10.48
2023-02-28T23:23:10.160Z,10.85
2023-02-28T23:25:40.592Z,11.85
2023-02-28T23:28:07.465Z,10.45
2023-02-28T23:30:34.271Z,9.77
2023-02-28T23:33:01.177Z,10.25
2023-02-28T23:35:27.746Z,12.25
2023-02-28T23:37:56.228Z,13.32
2023-02-28T23:40:22.665Z,12.00
2023-02-28T23:42:51.192Z,13.30
2023-02-28T23:45:18.201Z,13.77
2023-02-28T23:47:44.865Z,11.82
2023-02-28T23:50:11.694Z,14.32
2023-02-28T23:52:38.207Z,11.70
2023-02-28T23:55:05.040Z,13.77
2023-02-28T23:57:31.552Z,13.23
2023-02-28T23:59:59.619Z,11.02
